createdAt,value
2023-03-29T00:02:02.244Z,-5.48
2023-03-29T00:04:29.079Z,-5.48
2023-03-29T00:06:55.858Z,-5.48
2023-03-29T00:09:23.267Z,-5.50
2023-03-29T00:11:49.825Z,-5.52
2023-03-29T00:14:16.519Z,-5.51
2023-03-29T00:16:44.873Z,-5.52
2023-03-29T00:19:11.617Z,-5.55
2023-03-29T00:21:38.195Z,-5.57
2023-03-29T00:24:04.974Z,-5.59
2023-03-29T00:26:31.515Z,-5.60
2023-03-29T00:28:58.054Z,-5.63
2023-03-29T00:31:24.714Z,-5.61
2023-03-29T00:33:51.355Z,-5.61
2023-03-29T00:36:18.086Z,-5.62
2023-03-29T00:38:44.653Z,-5.62
2023-03-29T00:41:11.837Z,-5.60
2023-03-29T00:43:56.958Z,-5.58
2023-03-29T00:46:25.951Z,-5.58
2023-03-29T00:48:57.829Z,-5.58
2023-03-29T00:51:29.220Z,-5.61
2023-03-29T00:54:00.030Z,-5.63
2023-03-29T00:56:31.396Z,-5.63
2023-03-29T00:59:09.514Z,-5.63
2023-03-29T01:01:54.403Z,-5.64
2023-03-29T01:04:32.790Z,-5.61
2023-03-29T01:07:13.586Z,-5.61
2023-03-29T01:09:45.691Z,-5.60
2023-03-29T01:12:17.303Z,-5.62
2023-03-29T01:15:21.193Z,-5.62
2023-03-29T01:17:50.942Z,-5.65
2023-03-29T01:20:26.919Z,-5.71
2023-03-29T01:23:27.469Z,-5.73
2023-03-29T01:25:54.043Z,-5.76
2023-03-29T01:28:29.788Z,-5.80
2023-03-29T01:31:04.280Z,-5.82
2023-03-29T01:33:38.770Z,-5.83
2023-03-29T01:36:09.651Z,-5.80
2023-03-29T01:38:59.593Z,-5.78
2023-03-29T01:41:51.313Z,-5.75
2023-03-29T01:44:35.748Z,-5.76
2023-03-29T01:47:25.342Z,-5.78
2023-03-29T01:50:12.309Z,-5.81
2023-03-29T01:52:48.790Z,-5.81
2023-03-29T01:55:20.811Z,-5.82
2023-03-29T01:57:49.901Z,-5.84
2023-03-29T02:00:21.224Z,-5.87
2023-03-29T02:02:50.189Z,-5.88
2023-03-29T02:05:16.982Z,-5.87
2023-03-29T02:07:47.517Z,-5.87
2023-03-29T02:10:16.410Z,-5.89
2023-03-29T02:12:43.287Z,-5.91
2023-03-29T02:15:15.466Z,-5.92
2023-03-29T02:17:43.641Z,-5.93
2023-03-29T02:20:22.735Z,-5.95
2023-03-29T02:23:14.424Z,-5.94
2023-03-29T02:25:43.200Z,-5.98
2023-03-29T02:28:09.857Z,-5.99
2023-03-29T02:31:03.168Z,-5.98
2023-03-29T02:33:53.100Z,-5.99
2023-03-29T02:36:28.700Z,-6.00
2023-03-29T02:38:56.444Z,-6.03
2023-03-29T02:41:25.531Z,-6.03
2023-03-29T02:43:53.715Z,-6.07
2023-03-29T02:46:21.045Z,-6.07
2023-03-29T02:48:50.295Z,-6.07
2023-03-29T02:51:28.773Z,-6.03
2023-03-29T02:54:06.707Z,-6.03
2023-03-29T02:56:55.245Z,-6.05
2023-03-29T02:59:25.138Z,-6.00
2023-03-29T03:01:54.992Z,-5.92
2023-03-29T03:04:21.583Z,-5.88
2023-03-29T03:06:48.453Z,-5.79
2023-03-29T03:09:15.690Z,-5.73
2023-03-29T03:11:42.347Z,-5.73
2023-03-29T03:14:08.889Z,-5.78
2023-03-29T03:16:36.223Z,-5.81
2023-03-29T03:19:03.853Z,-5.84
2023-03-29T03:21:30.902Z,-5.87
2023-03-29T03:23:57.645Z,-5.89
2023-03-29T03:26:29.929Z,-5.86
2023-03-29T03:28:57.302Z,-5.83
2023-03-29T03:31:24.241Z,-5.81
2023-03-29T03:33:51.124Z,-5.79
2023-03-29T03:36:17.670Z,-5.73
2023-03-29T03:38:45.093Z,-5.63
2023-03-29T03:41:11.745Z,-5.54
2023-03-29T03:43:38.531Z,-5.47
2023-03-29T03:46:05.461Z,-5.41
2023-03-29T03:48:32.412Z,-5.42
2023-03-29T03:50:59.397Z,-5.41
2023-03-29T03:53:28.474Z,-5.41
2023-03-29T03:55:58.631Z,-5.40
2023-03-29T03:58:26.030Z,-5.43
2023-03-29T04:00:52.627Z,-5.49
2023-03-29T04:03:19.427Z,-5.41
2023-03-29T04:05:47.111Z,-5.34
2023-03-29T04:08:14.876Z,-5.30
2023-03-29T04:10:41.704Z,-5.32
2023-03-29T04:13:08.392Z,-5.32
2023-03-29T04:15:38.419Z,-5.30
2023-03-29T04:18:07.262Z,-5.29
2023-03-29T04:20:34.600Z,-5.27
2023-03-29T04:23:02.003Z,-5.30
2023-03-29T04:25:28.901Z,-5.36
2023-03-29T04:27:56.104Z,-5.38
2023-03-29T04:30:22.684Z,-5.34
2023-03-29T04:32:49.411Z,-5.28
2023-03-29T04:35:16.135Z,-5.14
2023-03-29T04:37:42.752Z,-5.02
2023-03-29T04:40:10.051Z,-4.92
2023-03-29T04:42:37.717Z,-4.88
2023-03-29T04:45:07.212Z,-4.85
2023-03-29T04:47:36.311Z,-4.79
2023-03-29T04:50:03.851Z,-4.75
2023-03-29T04:52:33.120Z,-4.72
2023-03-29T04:55:01.468Z,-4.60
2023-03-29T04:57:29.300Z,-4.44
2023-03-29T04:59:56.592Z,-4.26
2023-03-29T05:02:24.435Z,-4.04
2023-03-29T05:04:51.245Z,-3.82
2023-03-29T05:07:19.109Z,-3.62
2023-03-29T05:09:45.888Z,-3.42
2023-03-29T05:12:12.446Z,-3.30
2023-03-29T05:14:38.984Z,-3.10
2023-03-29T05:17:06.487Z,-2.96
2023-03-29T05:19:33.657Z,-2.79
2023-03-29T05:22:00.806Z,-2.53
2023-03-29T05:24:27.462Z,-2.20
2023-03-29T05:26:54.004Z,-1.82
2023-03-29T05:29:20.733Z,-1.44
2023-03-29T05:31:47.349Z,-1.00
2023-03-29T05:34:14.011Z,-0.44
2023-03-29T05:36:40.566Z,0.03
2023-03-29T05:39:07.371Z,0.38
2023-03-29T05:41:34.650Z,0.74
2023-03-29T05:44:01.612Z,1.12
2023-03-29T05:46:28.632Z,1.45
2023-03-29T05:48:55.166Z,1.86
2023-03-29T05:51:24.431Z,2.28
2023-03-29T05:53:51.761Z,2.80
2023-03-29T05:56:19.050Z,3.32
2023-03-29T05:58:49.502Z,3.82
2023-03-29T06:01:18.521Z,4.33
2023-03-29T06:03:49.135Z,4.85
2023-03-29T06:06:16.679Z,5.25
2023-03-29T06:08:44.427Z,5.68
2023-03-29T06:11:13.401Z,6.04
2023-03-29T06:13:40.108Z,6.28
2023-03-29T06:16:07.187Z,6.28
2023-03-29T06:18:34.317Z,5.88
2023-03-29T06:21:04.223Z,5.29
2023-03-29T06:23:31.352Z,4.74
2023-03-29T06:26:00.179Z,4.35
2023-03-29T06:28:26.901Z,4.06
2023-03-29T06:30:56.473Z,3.89
2023-03-29T06:33:24.966Z,3.89
2023-03-29T06:35:51.745Z,3.94
2023-03-29T06:38:19.455Z,3.91
2023-03-29T06:40:46.434Z,4.05
2023-03-29T06:43:13.023Z,4.21
2023-03-29T06:45:40.488Z,4.35
2023-03-29T06:48:08.153Z,4.51
2023-03-29T06:50:35.411Z,4.76
2023-03-29T06:53:02.901Z,5.06
2023-03-29T06:55:29.556Z,5.27
2023-03-29T06:57:56.183Z,5.36
2023-03-29T07:00:35.743Z,5.33
2023-03-29T07:03:10.581Z,5.23
2023-03-29T07:05:40.737Z,5.08
2023-03-29T07:08:07.894Z,4.88
2023-03-29T07:10:43.371Z,4.68
2023-03-29T07:13:13.356Z,4.50
2023-03-29T07:15:41.898Z,4.23
2023-03-29T07:18:10.225Z,3.97
2023-03-29T07:20:38.858Z,3.86
2023-03-29T07:23:09.145Z,3.82
2023-03-29T07:25:37.479Z,3.83
2023-03-29T07:28:04.664Z,3.84
2023-03-29T07:30:32.690Z,3.90
2023-03-29T07:32:59.734Z,3.90
2023-03-29T07:35:26.935Z,3.94
2023-03-29T07:37:55.529Z,4.04
2023-03-29T07:40:23.848Z,4.04
2023-03-29T07:42:56.530Z,4.11
2023-03-29T07:45:26.294Z,4.16
2023-03-29T07:47:58.207Z,4.12
2023-03-29T07:50:26.133Z,4.18
2023-03-29T07:52:52.898Z,4.24
2023-03-29T07:55:19.653Z,4.35
2023-03-29T07:57:48.812Z,4.53
2023-03-29T08:00:16.361Z,4.69
2023-03-29T08:02:44.880Z,4.84
2023-03-29T08:05:13.678Z,4.89
2023-03-29T08:07:42.481Z,4.96
2023-03-29T08:10:11.523Z,5.03
2023-03-29T08:12:38.235Z,5.11
2023-03-29T08:15:05.724Z,5.23
2023-03-29T08:17:33.458Z,5.42
2023-03-29T08:20:00.144Z,5.71
2023-03-29T08:22:27.073Z,6.07
2023-03-29T08:24:53.713Z,6.47
2023-03-29T08:27:20.572Z,6.82
2023-03-29T08:29:47.250Z,7.08
2023-03-29T08:32:14.173Z,7.43
2023-03-29T08:34:41.066Z,7.78
2023-03-29T08:37:08.567Z,8.02
2023-03-29T08:39:37.795Z,8.22
2023-03-29T08:42:28.864Z,8.46
2023-03-29T08:45:19.275Z,8.75
2023-03-29T08:48:14.944Z,8.99
2023-03-29T08:50:50.416Z,8.98
2023-03-29T08:53:44.185Z,8.90
2023-03-29T08:56:22.762Z,8.97
2023-03-29T08:58:52.273Z,9.11
2023-03-29T09:01:20.800Z,9.12
2023-03-29T09:03:50.272Z,8.99
2023-03-29T09:06:21.997Z,8.96
2023-03-29T09:08:50.947Z,9.08
2023-03-29T09:11:23.236Z,9.23
2023-03-29T09:13:49.724Z,9.12
2023-03-29T09:16:38.332Z,9.19
2023-03-29T09:19:28.410Z,9.60
2023-03-29T09:22:09.341Z,10.03
2023-03-29T09:24:47.144Z,10.05
2023-03-29T09:27:35.179Z,10.27
2023-03-29T09:30:18.975Z,10.41
2023-03-29T09:32:51.725Z,10.60
2023-03-29T09:35:32.369Z,10.60
2023-03-29T09:38:02.105Z,10.83
2023-03-29T09:40:38.244Z,10.73
2023-03-29T09:43:09.240Z,10.76
2023-03-29T09:45:39.298Z,10.76
2023-03-29T09:48:17.049Z,10.95
2023-03-29T09:50:47.340Z,10.93
2023-03-29T09:53:19.319Z,10.86
2023-03-29T09:55:49.800Z,10.49
2023-03-29T09:58:20.158Z,10.31
2023-03-29T10:00:48.482Z,10.24
2023-03-29T10:03:23.839Z,10.51
2023-03-29T10:05:54.527Z,10.63
2023-03-29T10:08:28.834Z,10.73
2023-03-29T10:10:59.771Z,10.85
2023-03-29T10:13:32.940Z,11.00
2023-03-29T10:16:09.231Z,10.97
2023-03-29T10:18:43.190Z,10.90
2023-03-29T10:21:17.230Z,11.00
2023-03-29T10:23:44.299Z,11.04
2023-03-29T10:26:36.242Z,11.22
2023-03-29T10:29:06.212Z,11.34
2023-03-29T10:31:33.528Z,11.43
2023-03-29T10:34:05.065Z,11.57
2023-03-29T10:36:32.379Z,11.52
2023-03-29T10:39:04.369Z,11.59
2023-03-29T10:41:34.183Z,11.51
2023-03-29T10:44:01.527Z,11.31
2023-03-29T10:46:40.310Z,11.21
2023-03-29T10:49:18.132Z,11.09
2023-03-29T10:51:46.308Z,11.01
2023-03-29T10:54:15.833Z,11.06
2023-03-29T10:56:56.520Z,10.83
2023-03-29T10:59:23.100Z,10.94
2023-03-29T11:02:14.437Z,11.02
2023-03-29T11:04:47.636Z,10.91
2023-03-29T11:07:28.904Z,11.08
2023-03-29T11:10:01.523Z,11.32
2023-03-29T11:12:39.959Z,11.55
2023-03-29T11:15:22.213Z,11.80
2023-03-29T11:17:54.740Z,11.93
2023-03-29T11:20:40.030Z,12.03
2023-03-29T11:23:42.057Z,12.08
2023-03-29T11:26:22.693Z,11.99
2023-03-29T11:29:28.176Z,12.19
2023-03-29T11:32:15.162Z,11.93
2023-03-29T11:35:09.998Z,11.73
2023-03-29T11:38:11.875Z,11.87
2023-03-29T11:40:53.420Z,11.98
2023-03-29T11:43:41.438Z,11.85
2023-03-29T11:46:21.808Z,11.93
2023-03-29T11:48:55.602Z,12.05
2023-03-29T11:51:34.304Z,11.91
2023-03-29T11:54:28.584Z,11.74
2023-03-29T11:57:02.018Z,11.80
2023-03-29T11:59:36.404Z,11.71
2023-03-29T12:02:35.951Z,11.51
2023-03-29T12:05:12.050Z,11.31
2023-03-29T12:07:49.317Z,11.35
2023-03-29T12:10:21.582Z,11.44
2023-03-29T12:12:55.268Z,11.48
2023-03-29T12:15:26.186Z,11.74
2023-03-29T12:18:22.937Z,11.82
2023-03-29T12:20:57.620Z,11.74
2023-03-29T12:23:24.373Z,11.67
2023-03-29T12:26:25.494Z,11.70
2023-03-29T12:29:26.329Z,11.87
2023-03-29T12:32:12.370Z,11.86
2023-03-29T12:35:06.923Z,11.54
2023-03-29T12:37:47.018Z,11.40
2023-03-29T12:40:18.303Z,11.28
2023-03-29T12:42:47.429Z,11.18
2023-03-29T12:45:51.092Z,11.01
2023-03-29T12:48:24.171Z,10.99
2023-03-29T12:50:54.364Z,10.96
2023-03-29T12:53:28.278Z,11.04
2023-03-29T12:56:01.208Z,11.23
2023-03-29T12:58:39.999Z,11.35
2023-03-29T13:01:23.414Z,11.49
2023-03-29T13:04:14.970Z,11.57
2023-03-29T13:06:47.525Z,11.68
2023-03-29T13:09:30.758Z,11.67
2023-03-29T13:12:04.748Z,11.58
2023-03-29T13:14:34.434Z,11.70
2023-03-29T13:17:15.576Z,11.89
2023-03-29T13:19:53.409Z,12.12
2023-03-29T13:22:41.766Z,12.34
2023-03-29T13:25:44.647Z,12.58
2023-03-29T13:28:46.740Z,12.62
2023-03-29T13:31:47.554Z,12.58
2023-03-29T13:34:37.744Z,12.52
2023-03-29T13:37:23.112Z,12.53
2023-03-29T13:39:55.004Z,12.43
2023-03-29T13:45:29.763Z,11.89
2023-03-29T13:48:25.110Z,11.78
2023-03-29T13:50:57.477Z,11.85
2023-03-29T13:53:31.174Z,11.96
2023-03-29T13:55:59.421Z,12.18
2023-03-29T13:58:35.250Z,12.21
2023-03-29T14:01:10.805Z,12.12
2023-03-29T14:03:46.859Z,12.11
2023-03-29T14:06:17.752Z,12.30
2023-03-29T14:08:45.050Z,12.44
2023-03-29T14:11:18.888Z,12.65
2023-03-29T14:13:47.919Z,12.86
2023-03-29T14:16:14.660Z,13.06
2023-03-29T14:18:42.569Z,13.04
2023-03-29T14:21:12.411Z,12.87
2023-03-29T14:23:42.068Z,12.73
2023-03-29T14:26:10.585Z,12.58
2023-03-29T14:28:43.556Z,12.49
2023-03-29T14:31:20.374Z,12.26
2023-03-29T14:33:58.469Z,12.02
2023-03-29T14:36:27.157Z,11.65
2023-03-29T14:39:01.453Z,11.43
2023-03-29T14:41:33.595Z,11.30
2023-03-29T14:44:01.031Z,11.24
2023-03-29T14:46:27.747Z,11.19
2023-03-29T14:48:55.803Z,11.16
2023-03-29T14:51:28.583Z,11.02
2023-03-29T14:53:56.171Z,11.00
2023-03-29T14:56:25.480Z,10.98
2023-03-29T14:58:56.615Z,10.86
2023-03-29T15:01:25.990Z,10.78
2023-03-29T15:04:01.972Z,10.78
2023-03-29T15:06:29.996Z,10.91
2023-03-29T15:09:05.866Z,11.00
2023-03-29T15:11:34.495Z,11.03
2023-03-29T15:14:01.288Z,11.09
2023-03-29T15:16:32.822Z,11.10
2023-03-29T15:19:01.746Z,11.09
2023-03-29T15:21:33.925Z,11.09
2023-03-29T15:24:03.366Z,11.11
2023-03-29T15:26:38.343Z,11.05
2023-03-29T15:29:13.820Z,11.10
2023-03-29T15:31:42.180Z,11.19
2023-03-29T15:34:11.667Z,11.23
2023-03-29T15:36:43.303Z,11.20
2023-03-29T15:39:15.310Z,11.15
2023-03-29T15:41:42.775Z,11.08
2023-03-29T15:44:10.906Z,11.09
2023-03-29T15:46:37.702Z,11.05
2023-03-29T15:49:05.089Z,11.04
2023-03-29T15:51:31.964Z,10.90
2023-03-29T15:53:58.516Z,10.79
2023-03-29T15:56:26.665Z,10.73
2023-03-29T15:58:53.489Z,10.74
2023-03-29T16:01:36.697Z,10.72
2023-03-29T16:04:14.988Z,10.68
2023-03-29T16:06:46.950Z,10.67
2023-03-29T16:09:14.371Z,10.64
2023-03-29T16:11:43.145Z,10.57
2023-03-29T16:14:21.128Z,10.45
2023-03-29T16:16:48.008Z,10.35
2023-03-29T16:19:18.391Z,10.28
2023-03-29T16:21:45.503Z,10.14
2023-03-29T16:24:24.204Z,9.99
2023-03-29T16:26:54.006Z,9.90
2023-03-29T16:29:22.636Z,9.81
2023-03-29T16:31:50.237Z,9.74
2023-03-29T16:34:18.876Z,9.69
2023-03-29T16:36:47.537Z,9.62
2023-03-29T16:39:14.645Z,9.58
2023-03-29T16:41:42.213Z,9.50
2023-03-29T16:44:15.880Z,9.42
2023-03-29T16:46:42.792Z,9.34
2023-03-29T16:49:18.346Z,9.29
2023-03-29T16:51:48.392Z,9.22
2023-03-29T16:54:17.354Z,9.15
2023-03-29T16:56:44.104Z,9.11
2023-03-29T16:59:11.948Z,9.08
2023-03-29T17:01:40.773Z,9.05
2023-03-29T17:04:08.282Z,9.08
2023-03-29T17:06:38.333Z,8.98
2023-03-29T17:09:06.231Z,8.89
2023-03-29T17:11:33.218Z,8.79
2023-03-29T17:14:00.158Z,8.68
2023-03-29T17:16:29.037Z,8.56
2023-03-29T17:18:58.488Z,8.43
2023-03-29T17:21:25.535Z,8.29
2023-03-29T17:23:52.079Z,8.13
2023-03-29T17:26:18.640Z,8.00
2023-03-29T17:28:45.493Z,7.84
2023-03-29T17:31:12.153Z,7.70
2023-03-29T17:33:38.770Z,7.53
2023-03-29T17:36:06.980Z,7.37
2023-03-29T17:38:34.957Z,7.23
2023-03-29T17:41:02.807Z,7.15
2023-03-29T17:43:32.029Z,7.11
2023-03-29T17:45:58.680Z,7.07
2023-03-29T17:48:25.741Z,7.02
2023-03-29T17:50:55.251Z,6.94
2023-03-29T17:53:22.116Z,6.88
2023-03-29T17:55:49.222Z,6.82
2023-03-29T17:58:16.571Z,6.76
2023-03-29T18:00:43.342Z,6.71
2023-03-29T18:03:10.210Z,6.70
2023-03-29T18:05:37.030Z,6.68
2023-03-29T18:08:04.014Z,6.68
2023-03-29T18:10:30.920Z,6.68
2023-03-29T18:12:57.573Z,6.68
2023-03-29T18:15:24.162Z,6.69
2023-03-29T18:17:53.116Z,6.69
2023-03-29T18:20:20.688Z,6.71
2023-03-29T18:22:47.338Z,6.73
2023-03-29T18:25:14.670Z,6.75
2023-03-29T18:27:41.394Z,6.77
2023-03-29T18:30:09.057Z,6.77
2023-03-29T18:32:36.284Z,6.74
2023-03-29T18:35:03.515Z,6.76
2023-03-29T18:37:30.092Z,6.75
2023-03-29T18:40:00.306Z,6.73
2023-03-29T18:42:30.997Z,6.74
2023-03-29T18:44:57.823Z,6.71
2023-03-29T18:47:25.531Z,6.69
2023-03-29T18:49:52.359Z,6.67
2023-03-29T18:52:19.179Z,6.67
2023-03-29T18:54:45.907Z,6.67
2023-03-29T18:57:12.650Z,6.65
2023-03-29T18:59:39.524Z,6.66
2023-03-29T19:02:06.227Z,6.64
2023-03-29T19:04:32.959Z,6.62
2023-03-29T19:07:01.396Z,6.62
2023-03-29T19:09:28.203Z,6.65
2023-03-29T19:11:54.861Z,6.64
2023-03-29T19:14:24.211Z,6.65
2023-03-29T19:16:53.553Z,6.64
2023-03-29T19:19:22.515Z,6.61
2023-03-29T19:21:49.626Z,6.63
2023-03-29T19:24:16.715Z,6.66
2023-03-29T19:26:44.445Z,6.68
2023-03-29T19:29:11.112Z,6.69
2023-03-29T19:31:38.005Z,6.68
2023-03-29T19:34:07.019Z,6.71
2023-03-29T19:36:33.797Z,6.71
2023-03-29T19:39:00.910Z,6.70
2023-03-29T19:41:28.325Z,6.73
2023-03-29T19:43:55.145Z,6.72
2023-03-29T19:46:21.877Z,6.74
2023-03-29T19:48:48.549Z,6.74
2023-03-29T19:51:15.373Z,6.73
2023-03-29T19:53:42.014Z,6.77
2023-03-29T19:56:10.909Z,6.76
2023-03-29T19:58:37.728Z,6.76
2023-03-29T20:01:04.601Z,6.75
2023-03-29T20:03:34.044Z,6.74
2023-03-29T20:06:01.499Z,6.73
2023-03-29T20:08:28.481Z,6.73
2023-03-29T20:11:05.041Z,6.73
2023-03-29T20:13:38.687Z,6.75
2023-03-29T20:16:11.737Z,6.75
2023-03-29T20:18:39.494Z,6.79
2023-03-29T20:21:07.689Z,6.79
2023-03-29T20:23:35.384Z,6.80
2023-03-29T20:26:02.328Z,6.80
2023-03-29T20:28:29.286Z,6.81
2023-03-29T20:30:55.841Z,6.83
2023-03-29T20:33:22.945Z,6.86
2023-03-29T20:35:49.760Z,6.85
2023-03-29T20:38:16.373Z,6.87
2023-03-29T20:40:43.172Z,6.88
2023-03-29T20:43:13.449Z,6.88
2023-03-29T20:45:52.554Z,6.90
2023-03-29T20:48:31.444Z,6.90
2023-03-29T20:50:58.298Z,6.95
2023-03-29T20:53:25.848Z,6.93
2023-03-29T20:55:52.644Z,6.94
2023-03-29T20:58:19.302Z,6.93
2023-03-29T21:00:48.355Z,6.91
2023-03-29T21:03:15.048Z,6.90
2023-03-29T21:05:41.883Z,6.90
2023-03-29T21:08:08.521Z,6.90
2023-03-29T21:10:36.588Z,6.86
2023-03-29T21:13:06.086Z,6.84
2023-03-29T21:15:33.207Z,6.83
2023-03-29T21:17:59.859Z,6.82
2023-03-29T21:20:27.712Z,6.79
2023-03-29T21:22:54.429Z,6.76
2023-03-29T21:25:21.643Z,6.77
2023-03-29T21:27:49.060Z,6.78
2023-03-29T21:30:15.723Z,6.77
2023-03-29T21:32:42.330Z,6.78
2023-03-29T21:35:09.701Z,6.78
2023-03-29T21:37:36.337Z,6.80
2023-03-29T21:40:07.149Z,6.79
2023-03-29T21:42:34.511Z,6.78
2023-03-29T21:45:01.566Z,6.76
2023-03-29T21:47:28.823Z,6.78
2023-03-29T21:49:55.408Z,6.77
2023-03-29T21:52:22.364Z,6.77
2023-03-29T21:54:48.978Z,6.76
2023-03-29T21:57:15.749Z,6.79
2023-03-29T21:59:42.454Z,6.75
2023-03-29T22:02:09.126Z,6.72
2023-03-29T22:04:37.403Z,6.74
2023-03-29T22:07:05.839Z,6.72
2023-03-29T22:09:35.210Z,6.72
2023-03-29T22:12:03.162Z,6.71
2023-03-29T22:14:35.095Z,6.70
2023-03-29T22:17:05.828Z,6.71
2023-03-29T22:19:33.990Z,6.71
2023-03-29T22:22:01.468Z,6.69
2023-03-29T22:24:29.121Z,6.67
2023-03-29T22:26:56.213Z,6.68
2023-03-29T22:29:22.938Z,6.71
2023-03-29T22:31:49.653Z,6.71
2023-03-29T22:34:16.369Z,6.73
2023-03-29T22:36:42.935Z,6.69
2023-03-29T22:39:10.910Z,6.65
2023-03-29T22:41:37.644Z,6.67
2023-03-29T22:44:04.421Z,6.67
2023-03-29T22:46:31.244Z,6.64
2023-03-29T22:48:57.936Z,6.69
2023-03-29T22:51:24.559Z,6.67
2023-03-29T22:53:51.506Z,6.64
2023-03-29T22:56:18.102Z,6.60
2023-03-29T22:58:44.834Z,6.61
2023-03-29T23:01:11.980Z,6.58
2023-03-29T23:03:38.656Z,6.56
2023-03-29T23:06:05.990Z,6.56
2023-03-29T23:08:34.294Z,6.60
2023-03-29T23:11:01.906Z,6.60
2023-03-29T23:13:29.421Z,6.60
2023-03-29T23:15:59.052Z,6.58
2023-03-29T23:18:27.724Z,6.55
2023-03-29T23:20:56.850Z,6.56
2023-03-29T23:23:25.014Z,6.54
2023-03-29T23:25:53.106Z,6.58
2023-03-29T23:28:23.488Z,6.53
2023-03-29T23:30:58.394Z,6.51
2023-03-29T23:33:26.131Z,6.53
2023-03-29T23:35:53.616Z,6.52
2023-03-29T23:38:20.939Z,6.53
2023-03-29T23:41:02.108Z,6.54
2023-03-29T23:43:32.667Z,6.54
2023-03-29T23:46:01.663Z,6.56
2023-03-29T23:48:28.604Z,6.56
2023-03-29T23:50:57.236Z,6.55
2023-03-29T23:53:25.503Z,6.54
2023-03-29T23:55:52.080Z,6.51
2023-03-29T23:58:18.678Z,6.50
